createdAt,value
2018-09-13T00:02:10.429Z,7.90
2018-09-13T00:04:38.544Z,8.00
2018-09-13T00:07:06.089Z,8.00
2018-09-13T00:09:33.873Z,8.20
2018-09-13T00:12:02.566Z,8.20
2018-09-13T00:14:30.445Z,8.10
2018-09-13T00:16:58.373Z,8.00
2018-09-13T00:19:26.585Z,8.10
2018-09-13T00:21:54.862Z,8.00
2018-09-13T00:24:23.622Z,7.90
2018-09-13T00:26:51.531Z,7.80
2018-09-13T00:29:19.476Z,7.70
2018-09-13T00:31:47.463Z,7.70
2018-09-13T00:34:15.552Z,7.60
2018-09-13T00:36:43.290Z,7.50
2018-09-13T00:39:11.062Z,7.60
2018-09-13T00:41:39.511Z,7.50
2018-09-13T00:44:07.682Z,7.50
2018-09-13T00:46:36.032Z,7.50
2018-09-13T00:49:04.900Z,7.50
2018-09-13T00:51:33.166Z,7.50
2018-09-13T00:54:01.100Z,7.60
2018-09-13T00:56:28.949Z,7.60
2018-09-13T00:58:56.778Z,7.60
2018-09-13T01:01:24.642Z,7.50
2018-09-13T01:03:52.410Z,7.60
2018-09-13T01:06:21.026Z,7.60
2018-09-13T01:08:48.783Z,7.50
2018-09-13T01:11:16.586Z,7.60
2018-09-13T01:13:44.561Z,7.60
2018-09-13T01:16:12.429Z,7.60
2018-09-13T01:18:40.275Z,7.60
2018-09-13T01:21:08.398Z,7.60
2018-09-13T01:23:36.309Z,7.60
2018-09-13T01:26:04.495Z,7.60
2018-09-13T01:28:32.322Z,7.60
2018-09-13T01:31:00.195Z,7.80
2018-09-13T01:33:28.256Z,7.90
2018-09-13T01:35:55.909Z,7.90
2018-09-13T01:38:23.755Z,7.90
2018-09-13T01:40:51.502Z,8.00
2018-09-13T01:43:18.993Z,8.10
2018-09-13T01:45:46.729Z,8.20
2018-09-13T01:48:14.470Z,8.10
2018-09-13T01:50:41.928Z,8.10
2018-09-13T01:53:09.891Z,8.30
2018-09-13T01:55:37.752Z,8.20
2018-09-13T01:58:05.949Z,8.20
2018-09-13T02:00:33.711Z,8.30
2018-09-13T02:03:01.288Z,8.30
2018-09-13T02:05:29.153Z,8.40
2018-09-13T02:07:56.897Z,8.50
2018-09-13T02:10:25.209Z,8.50
2018-09-13T02:12:53.054Z,8.30
2018-09-13T02:15:28.161Z,8.10
2018-09-13T02:17:56.073Z,8.00
2018-09-13T02:20:24.112Z,7.90
2018-09-13T02:22:51.907Z,7.80
2018-09-13T02:25:19.673Z,7.80
2018-09-13T02:27:47.695Z,7.70
2018-09-13T02:30:15.622Z,7.70
2018-09-13T02:32:43.595Z,7.70
2018-09-13T02:35:11.491Z,7.60
2018-09-13T02:37:39.634Z,7.60
2018-09-13T02:40:07.686Z,7.60
2018-09-13T02:42:35.655Z,7.50
2018-09-13T02:45:03.625Z,7.50
2018-09-13T02:47:31.490Z,7.50
2018-09-13T02:50:00.503Z,7.50
2018-09-13T02:52:28.362Z,7.50
2018-09-13T02:54:56.108Z,7.50
2018-09-13T02:57:26.318Z,7.40
2018-09-13T02:59:54.163Z,7.40
2018-09-13T03:02:22.199Z,7.50
2018-09-13T03:04:50.011Z,7.40
2018-09-13T03:07:17.959Z,7.30
2018-09-13T03:09:45.720Z,7.40
2018-09-13T03:12:13.465Z,7.40
2018-09-13T03:14:41.254Z,7.30
2018-09-13T03:17:08.932Z,7.30
2018-09-13T03:19:36.633Z,7.20
2018-09-13T03:22:04.546Z,7.20
2018-09-13T03:24:32.125Z,7.10
2018-09-13T03:27:00.736Z,7.10
2018-09-13T03:29:28.799Z,6.90
2018-09-13T03:31:56.593Z,7.00
2018-09-13T03:34:24.439Z,6.90
2018-09-13T03:36:52.292Z,6.90
2018-09-13T03:39:20.078Z,6.90
2018-09-13T03:41:47.742Z,6.90
2018-09-13T03:44:15.335Z,6.90
2018-09-13T03:46:43.059Z,6.90
2018-09-13T03:49:10.890Z,6.90
2018-09-13T03:51:38.627Z,6.90
2018-09-13T03:54:06.399Z,6.80
2018-09-13T03:56:34.204Z,6.70
2018-09-13T03:59:02.015Z,6.70
2018-09-13T04:01:29.895Z,6.60
2018-09-13T04:03:57.689Z,6.60
2018-09-13T04:06:25.486Z,6.50
2018-09-13T04:08:53.254Z,6.40
2018-09-13T04:11:20.905Z,6.40
2018-09-13T04:13:48.731Z,6.40
2018-09-13T04:16:16.398Z,6.30
2018-09-13T04:18:43.899Z,6.20
2018-09-13T04:21:11.397Z,6.10
2018-09-13T04:23:38.869Z,6.00
2018-09-13T04:26:06.387Z,5.90
2018-09-13T04:28:33.975Z,5.80
2018-09-13T04:31:01.386Z,5.70
2018-09-13T04:33:28.940Z,5.50
2018-09-13T04:35:56.689Z,5.50
2018-09-13T04:38:24.093Z,5.40
2018-09-13T04:40:51.581Z,5.40
2018-09-13T04:43:19.026Z,5.40
2018-09-13T04:45:46.937Z,5.40
2018-09-13T04:48:14.434Z,5.40
2018-09-13T04:50:41.832Z,5.40
2018-09-13T04:53:09.325Z,5.40
2018-09-13T04:55:36.697Z,5.40
2018-09-13T04:58:04.446Z,5.50
2018-09-13T05:00:31.926Z,5.50
2018-09-13T05:02:59.356Z,5.60
2018-09-13T05:05:26.919Z,5.60
2018-09-13T05:07:54.389Z,5.70
2018-09-13T05:10:21.805Z,5.80
2018-09-13T05:12:50.609Z,5.80
2018-09-13T05:15:18.513Z,5.90
2018-09-13T05:17:47.642Z,6.00
2018-09-13T05:20:15.694Z,6.10
2018-09-13T05:22:43.659Z,6.10
2018-09-13T05:25:12.117Z,6.20
2018-09-13T05:27:40.724Z,6.30
2018-09-13T05:30:09.853Z,6.40
2018-09-13T05:32:39.249Z,6.50
2018-09-13T05:35:09.019Z,6.70
2018-09-13T05:37:42.202Z,6.80
2018-09-13T05:40:10.941Z,7.00
2018-09-13T05:42:39.079Z,7.20
2018-09-13T05:45:07.290Z,7.30
2018-09-13T05:47:36.238Z,7.40
2018-09-13T05:50:06.146Z,7.60
2018-09-13T05:52:34.315Z,7.70
2018-09-13T05:55:02.542Z,7.80
2018-09-13T05:57:30.808Z,8.00
2018-09-13T06:00:01.317Z,8.20
2018-09-13T06:02:30.836Z,8.40
2018-09-13T06:05:02.761Z,8.60
2018-09-13T06:07:33.282Z,8.80
2018-09-13T06:10:10.732Z,8.90
2018-09-13T06:12:52.969Z,9.10
2018-09-13T06:15:52.269Z,9.30
2018-09-13T06:18:25.513Z,9.50
2018-09-13T06:33:59.478Z,10.30
2018-09-13T06:36:34.129Z,10.40
2018-09-13T06:39:13.894Z,10.50
2018-09-13T06:42:09.009Z,10.60
2018-09-13T06:47:22.919Z,10.90
2018-09-13T06:56:11.306Z,11.40
2018-09-13T06:58:40.090Z,11.50
2018-09-13T07:01:09.412Z,11.60
2018-09-13T07:03:48.515Z,11.80
2018-09-13T07:06:17.152Z,11.90
2018-09-13T07:09:11.445Z,12.00
2018-09-13T07:14:35.226Z,12.30
2018-09-13T07:17:29.966Z,12.50
2018-09-13T07:26:16.184Z,12.70
2018-09-13T07:28:46.335Z,12.80
2018-09-13T07:31:15.095Z,12.80
2018-09-13T07:33:45.044Z,12.80
2018-09-13T07:36:33.089Z,12.80
2018-09-13T07:39:09.337Z,12.80
2018-09-13T07:41:38.516Z,12.80
2018-09-13T07:44:08.134Z,12.80
2018-09-13T07:46:38.718Z,12.80
2018-09-13T07:52:04.812Z,12.90
2018-09-13T07:54:34.010Z,12.90
2018-09-13T07:57:03.930Z,12.90
2018-09-13T07:59:45.340Z,12.90
2018-09-13T08:02:20.092Z,13.00
2018-09-13T08:04:52.291Z,13.00
2018-09-13T08:07:31.924Z,13.10
2018-09-13T08:10:06.270Z,13.20
2018-09-13T08:12:35.676Z,13.40
2018-09-13T08:15:13.089Z,13.40
2018-09-13T08:17:42.561Z,13.50
2018-09-13T08:20:17.788Z,13.60
2018-09-13T08:22:46.348Z,13.80
2018-09-13T08:25:15.734Z,13.90
2018-09-13T08:28:07.826Z,14.00
2018-09-13T08:34:31.441Z,14.20
2018-09-13T08:37:17.609Z,14.20
2018-09-13T08:39:51.443Z,14.20
2018-09-13T08:58:28.253Z,15.10
2018-09-13T09:00:57.607Z,14.80
2018-09-13T09:22:50.164Z,14.30
2018-09-13T09:25:18.741Z,14.50
2018-09-13T09:27:51.755Z,14.50
2018-09-13T09:30:44.570Z,14.60
2018-09-13T09:55:56.436Z,15.30
2018-09-13T11:25:49.483Z,15.60
2018-09-13T11:48:57.914Z,16.50
2018-09-13T12:05:40.294Z,16.40
2018-09-13T12:14:18.329Z,15.80
2018-09-13T12:17:19.473Z,15.60
2018-09-13T12:20:05.307Z,15.30
2018-09-13T12:25:45.825Z,14.80
2018-09-13T12:28:16.064Z,15.00
2018-09-13T12:31:21.420Z,14.80
2018-09-13T12:34:33.602Z,14.80
2018-09-13T12:38:42.034Z,15.00
2018-09-13T13:32:53.445Z,16.60
2018-09-13T13:35:43.651Z,15.80
2018-09-13T14:46:02.562Z,15.30
2018-09-13T15:42:30.667Z,14.80
2018-09-13T15:45:04.889Z,14.50
2018-09-13T15:47:42.275Z,14.30
2018-09-13T15:50:20.457Z,14.20
2018-09-13T15:53:20.131Z,14.20
2018-09-13T15:56:11.553Z,14.20
2018-09-13T15:58:40.663Z,14.10
2018-09-13T16:02:17.109Z,14.10
2018-09-13T16:11:05.194Z,13.90
2018-09-13T16:18:04.288Z,13.40
2018-09-13T16:59:34.804Z,12.90
2018-09-13T17:10:28.897Z,12.80
2018-09-13T17:12:59.037Z,12.80
2018-09-13T17:35:29.515Z,12.10
2018-09-13T17:55:09.035Z,11.60
2018-09-13T18:02:46.546Z,11.50
2018-09-13T18:19:21.426Z,11.40
2018-09-13T18:27:06.120Z,11.20
2018-09-13T19:30:08.862Z,10.30
2018-09-13T19:32:39.476Z,10.20
2018-09-13T19:35:16.699Z,10.00
2018-09-13T19:37:55.864Z,9.90
2018-09-13T19:40:34.079Z,9.80
2018-09-13T19:46:17.871Z,9.80
2018-09-13T19:49:14.997Z,9.90
2018-09-13T19:52:15.222Z,9.90
2018-09-13T19:55:06.401Z,10.00
2018-09-13T19:57:52.371Z,10.10
2018-09-13T20:03:31.157Z,10.00
2018-09-13T20:09:22.306Z,10.00
2018-09-13T20:15:15.415Z,9.70
2018-09-13T20:17:54.993Z,9.60
2018-09-13T20:20:25.832Z,9.40
2018-09-13T20:22:55.749Z,9.30
2018-09-13T20:25:30.987Z,9.30
2018-09-13T20:28:31.089Z,9.20
2018-09-13T20:31:35.164Z,9.00
2018-09-13T20:34:03.710Z,8.80
2018-09-13T20:36:31.954Z,8.70
2018-09-13T20:39:00.464Z,8.70
2018-09-13T20:41:34.161Z,8.70
2018-09-13T20:44:03.448Z,8.70
2018-09-13T20:46:34.896Z,8.70
2018-09-13T20:49:53.186Z,8.60
2018-09-13T20:52:22.326Z,8.50
2018-09-13T20:54:53.641Z,8.40
2018-09-13T20:57:22.297Z,8.40
2018-09-13T20:59:50.286Z,8.30
2018-09-13T21:04:39.229Z,8.30
2018-09-13T21:07:07.429Z,8.30
2018-09-13T21:09:35.573Z,8.20
2018-09-13T21:12:08.963Z,8.10
2018-09-13T21:14:36.902Z,8.20
2018-09-13T21:21:09.904Z,8.20
2018-09-13T21:23:38.389Z,8.30
2018-09-13T21:26:06.630Z,8.30
2018-09-13T21:28:34.733Z,8.30
2018-09-13T21:31:02.896Z,8.30
2018-09-13T21:33:33.193Z,8.30
2018-09-13T21:36:01.126Z,8.30
2018-09-13T21:38:29.477Z,8.30
2018-09-13T21:40:57.697Z,8.20
2018-09-13T21:43:25.747Z,8.20
2018-09-13T21:45:54.006Z,8.10
2018-09-13T21:48:22.020Z,8.00
2018-09-13T21:50:50.067Z,8.00
2018-09-13T21:53:18.275Z,7.90
2018-09-13T21:55:46.164Z,8.00
2018-09-13T21:58:14.253Z,8.00
2018-09-13T22:00:42.455Z,8.10
2018-09-13T22:03:10.575Z,8.20
2018-09-13T22:05:38.492Z,8.30
2018-09-13T22:08:06.681Z,8.40
2018-09-13T22:10:34.895Z,8.50
2018-09-13T22:13:03.082Z,8.40
2018-09-13T22:15:31.047Z,8.40
2018-09-13T22:17:58.974Z,8.30
2018-09-13T22:20:27.155Z,8.20
2018-09-13T22:22:55.545Z,8.00
2018-09-13T22:25:23.831Z,7.90
2018-09-13T22:27:53.147Z,7.80
2018-09-13T22:30:21.508Z,7.60
2018-09-13T22:32:50.089Z,7.60
2018-09-13T22:35:18.234Z,7.60
2018-09-13T22:37:46.804Z,7.50
2018-09-13T22:40:14.849Z,7.50
2018-09-13T22:42:42.920Z,7.50
2018-09-13T22:45:11.298Z,7.40
2018-09-13T22:47:39.381Z,7.40
2018-09-13T22:50:07.550Z,7.40
2018-09-13T22:52:35.714Z,7.60
2018-09-13T22:55:03.943Z,7.70
2018-09-13T22:57:33.067Z,7.90
2018-09-13T23:00:01.089Z,7.90
2018-09-13T23:02:29.502Z,8.10
2018-09-13T23:04:57.450Z,8.20
2018-09-13T23:07:26.212Z,8.30
2018-09-13T23:09:54.725Z,8.50
2018-09-13T23:12:23.071Z,8.70
2018-09-13T23:14:51.415Z,8.80
2018-09-13T23:17:19.488Z,9.00
2018-09-13T23:19:48.152Z,9.10
2018-09-13T23:22:19.733Z,9.20
2018-09-13T23:24:48.118Z,9.30
2018-09-13T23:27:17.460Z,9.30
2018-09-13T23:29:46.227Z,9.40
2018-09-13T23:32:19.770Z,9.40
2018-09-13T23:34:48.503Z,9.40
2018-09-13T23:37:17.193Z,9.50
2018-09-13T23:39:46.038Z,9.50
2018-09-13T23:42:15.084Z,9.50
2018-09-13T23:44:43.979Z,9.50
2018-09-13T23:47:22.828Z,9.60
2018-09-13T23:49:51.553Z,9.60
2018-09-13T23:52:21.202Z,9.70
2018-09-13T23:54:59.203Z,9.70
2018-09-13T23:57:28.781Z,9.80
